sensor_id;sensor_type;location;lat;lon;timestamp;P1;durP1;ratioP1;P2;durP2;ratioP2
47531;SDS011;33273;52.254;7.988;2022-10-16T00:01:07;11.15;;;5.22;;
47531;SDS011;33273;52.254;7.988;2022-10-16T00:03:36;8.98;;;5.50;;
47531;SDS011;33273;52.254;7.988;2022-10-16T00:06:04;6.68;;;4.85;;
47531;SDS011;33273;52.254;7.988;2022-10-16T00:08:33;9.50;;;4.95;;
47531;SDS011;33273;52.254;7.988;2022-10-16T00:11:07;10.05;;;5.20;;
47531;SDS011;33273;52.254;7.988;2022-10-16T00:13:36;11.45;;;5.05;;
47531;SDS011;33273;52.254;7.988;2022-10-16T00:16:04;9.10;;;4.60;;
47531;SDS011;33273;52.254;7.988;2022-10-16T00:18:32;10.70;;;5.05;;
47531;SDS011;33273;52.254;7.988;2022-10-16T00:21:09;9.00;;;5.05;;
47531;SDS011;33273;52.254;7.988;2022-10-16T00:23:38;6.75;;;4.50;;
47531;SDS011;33273;52.254;7.988;2022-10-16T00:26:06;10.45;;;5.30;;
47531;SDS011;33273;52.254;7.988;2022-10-16T00:28:34;8.07;;;4.93;;
47531;SDS011;33273;52.254;7.988;2022-10-16T00:31:04;10.68;;;6.13;;
47531;SDS011;33273;52.254;7.988;2022-10-16T00:33:31;8.65;;;5.55;;
47531;SDS011;33273;52.254;7.988;2022-10-16T00:35:58;8.27;;;6.22;;
47531;SDS011;33273;52.254;7.988;2022-10-16T00:38:25;12.63;;;6.95;;
47531;SDS011;33273;52.254;7.988;2022-10-16T00:40:52;9.98;;;5.72;;
47531;SDS011;33273;52.254;7.988;2022-10-16T00:46:05;10.40;;;6.22;;
47531;SDS011;33273;52.254;7.988;2022-10-16T00:48:37;8.70;;;6.30;;
47531;SDS011;33273;52.254;7.988;2022-10-16T00:51:06;10.57;;;6.65;;
47531;SDS011;33273;52.254;7.988;2022-10-16T00:53:33;10.95;;;7.40;;
47531;SDS011;33273;52.254;7.988;2022-10-16T00:56:00;15.85;;;8.07;;
47531;SDS011;33273;52.254;7.988;2022-10-16T00:58:29;12.68;;;7.82;;
47531;SDS011;33273;52.254;7.988;2022-10-16T01:00:58;9.45;;;7.00;;
47531;SDS011;33273;52.254;7.988;2022-10-16T01:03:28;15.33;;;8.10;;
47531;SDS011;33273;52.254;7.988;2022-10-16T01:06:21;11.60;;;7.47;;
47531;SDS011;33273;52.254;7.988;2022-10-16T01:08:46;13.40;;;7.90;;
47531;SDS011;33273;52.254;7.988;2022-10-16T01:11:24;13.63;;;7.55;;
47531;SDS011;33273;52.254;7.988;2022-10-16T01:14:21;15.13;;;7.97;;
47531;SDS011;33273;52.254;7.988;2022-10-16T01:16:52;14.18;;;7.28;;
47531;SDS011;33273;52.254;7.988;2022-10-16T01:22:18;11.18;;;6.90;;
47531;SDS011;33273;52.254;7.988;2022-10-16T01:24:48;10.52;;;7.47;;
47531;SDS011;33273;52.254;7.988;2022-10-16T01:27:48;13.10;;;6.97;;
47531;SDS011;33273;52.254;7.988;2022-10-16T01:30:32;12.02;;;7.47;;
47531;SDS011;33273;52.254;7.988;2022-10-16T01:33:10;11.82;;;6.97;;
47531;SDS011;33273;52.254;7.988;2022-10-16T01:35:45;12.77;;;7.90;;
47531;SDS011;33273;52.254;7.988;2022-10-16T01:38:26;18.75;;;8.52;;
47531;SDS011;33273;52.254;7.988;2022-10-16T01:41:00;13.02;;;7.55;;
47531;SDS011;33273;52.254;7.988;2022-10-16T01:43:35;16.77;;;8.02;;
47531;SDS011;33273;52.254;7.988;2022-10-16T01:46:07;10.98;;;8.40;;
47531;SDS011;33273;52.254;7.988;2022-10-16T01:48:35;13.50;;;8.68;;
47531;SDS011;33273;52.254;7.988;2022-10-16T01:51:04;12.35;;;8.27;;
47531;SDS011;33273;52.254;7.988;2022-10-16T01:53:33;16.80;;;9.57;;
47531;SDS011;33273;52.254;7.988;2022-10-16T01:56:00;13.75;;;8.18;;
47531;SDS011;33273;52.254;7.988;2022-10-16T01:58:30;14.55;;;8.32;;
47531;SDS011;33273;52.254;7.988;2022-10-16T02:01:02;12.48;;;7.82;;
47531;SDS011;33273;52.254;7.988;2022-10-16T02:03:33;15.10;;;8.52;;
47531;SDS011;33273;52.254;7.988;2022-10-16T02:06:01;13.82;;;8.27;;
47531;SDS011;33273;52.254;7.988;2022-10-16T02:08:27;14.38;;;9.38;;
47531;SDS011;33273;52.254;7.988;2022-10-16T02:10:55;14.90;;;8.98;;
47531;SDS011;33273;52.254;7.988;2022-10-16T02:13:25;13.52;;;8.77;;
47531;SDS011;33273;52.254;7.988;2022-10-16T02:15:51;13.00;;;8.95;;
47531;SDS011;33273;52.254;7.988;2022-10-16T02:18:19;12.40;;;7.85;;
47531;SDS011;33273;52.254;7.988;2022-10-16T02:23:53;14.85;;;8.40;;
47531;SDS011;33273;52.254;7.988;2022-10-16T02:26:29;11.63;;;8.27;;
47531;SDS011;33273;52.254;7.988;2022-10-16T02:29:05;14.30;;;8.95;;
47531;SDS011;33273;52.254;7.988;2022-10-16T02:31:35;12.88;;;8.75;;
47531;SDS011;33273;52.254;7.988;2022-10-16T02:34:06;14.57;;;8.32;;
47531;SDS011;33273;52.254;7.988;2022-10-16T02:36:34;14.63;;;9.15;;
47531;SDS011;33273;52.254;7.988;2022-10-16T02:39:02;12.85;;;8.27;;
47531;SDS011;33273;52.254;7.988;2022-10-16T02:41:30;13.52;;;8.40;;
47531;SDS011;33273;52.254;7.988;2022-10-16T02:43:57;13.65;;;8.70;;
47531;SDS011;33273;52.254;7.988;2022-10-16T02:46:23;11.38;;;8.15;;
47531;SDS011;33273;52.254;7.988;2022-10-16T02:48:49;14.95;;;8.63;;
47531;SDS011;33273;52.254;7.988;2022-10-16T02:51:16;10.45;;;7.88;;
47531;SDS011;33273;52.254;7.988;2022-10-16T02:53:41;14.13;;;8.37;;
47531;SDS011;33273;52.254;7.988;2022-10-16T02:56:08;12.05;;;7.68;;
47531;SDS011;33273;52.254;7.988;2022-10-16T02:58:34;15.75;;;9.02;;
47531;SDS011;33273;52.254;7.988;2022-10-16T03:01:00;14.98;;;8.48;;
47531;SDS011;33273;52.254;7.988;2022-10-16T03:03:27;10.07;;;7.10;;
47531;SDS011;33273;52.254;7.988;2022-10-16T03:05:55;11.15;;;7.72;;
47531;SDS011;33273;52.254;7.988;2022-10-16T03:08:20;15.90;;;7.87;;
47531;SDS011;33273;52.254;7.988;2022-10-16T03:10:49;12.93;;;8.05;;
47531;SDS011;33273;52.254;7.988;2022-10-16T03:13:15;9.25;;;7.00;;
47531;SDS011;33273;52.254;7.988;2022-10-16T03:15:43;12.13;;;6.88;;
47531;SDS011;33273;52.254;7.988;2022-10-16T03:18:09;10.88;;;7.50;;
47531;SDS011;33273;52.254;7.988;2022-10-16T03:20:35;11.05;;;7.35;;
47531;SDS011;33273;52.254;7.988;2022-10-16T03:23:01;11.85;;;7.28;;
47531;SDS011;33273;52.254;7.988;2022-10-16T03:25:27;11.15;;;7.68;;
47531;SDS011;33273;52.254;7.988;2022-10-16T03:27:53;14.87;;;7.43;;
47531;SDS011;33273;52.254;7.988;2022-10-16T03:30:19;12.47;;;8.47;;
47531;SDS011;33273;52.254;7.988;2022-10-16T03:32:45;13.32;;;6.95;;
47531;SDS011;33273;52.254;7.988;2022-10-16T03:35:11;10.75;;;7.35;;
47531;SDS011;33273;52.254;7.988;2022-10-16T03:37:37;13.37;;;7.03;;
47531;SDS011;33273;52.254;7.988;2022-10-16T03:40:03;13.55;;;7.43;;
47531;SDS011;33273;52.254;7.988;2022-10-16T03:42:30;10.15;;;7.35;;
47531;SDS011;33273;52.254;7.988;2022-10-16T03:44:55;9.67;;;7.07;;
47531;SDS011;33273;52.254;7.988;2022-10-16T03:47:22;10.63;;;7.38;;
47531;SDS011;33273;52.254;7.988;2022-10-16T03:49:50;11.55;;;7.03;;
47531;SDS011;33273;52.254;7.988;2022-10-16T03:52:16;8.73;;;7.15;;
47531;SDS011;33273;52.254;7.988;2022-10-16T03:54:43;10.38;;;6.55;;
47531;SDS011;33273;52.254;7.988;2022-10-16T03:57:08;8.80;;;6.30;;
47531;SDS011;33273;52.254;7.988;2022-10-16T03:59:35;12.20;;;6.53;;
47531;SDS011;33273;52.254;7.988;2022-10-16T04:02:01;9.30;;;6.20;;
47531;SDS011;33273;52.254;7.988;2022-10-16T04:04:27;8.23;;;6.13;;
47531;SDS011;33273;52.254;7.988;2022-10-16T04:06:56;7.97;;;5.75;;
47531;SDS011;33273;52.254;7.988;2022-10-16T04:09:21;9.73;;;5.77;;
47531;SDS011;33273;52.254;7.988;2022-10-16T04:11:47;7.87;;;5.87;;
47531;SDS011;33273;52.254;7.988;2022-10-16T04:14:14;9.40;;;5.82;;
47531;SDS011;33273;52.254;7.988;2022-10-16T04:16:40;9.63;;;6.07;;
47531;SDS011;33273;52.254;7.988;2022-10-16T04:19:06;8.77;;;5.80;;
47531;SDS011;33273;52.254;7.988;2022-10-16T04:21:33;8.80;;;5.05;;
47531;SDS011;33273;52.254;7.988;2022-10-16T04:24:00;9.88;;;6.13;;
47531;SDS011;33273;52.254;7.988;2022-10-16T04:26:26;10.17;;;5.27;;
47531;SDS011;33273;52.254;7.988;2022-10-16T04:28:51;6.67;;;4.83;;
47531;SDS011;33273;52.254;7.988;2022-10-16T04:31:17;8.70;;;5.20;;
47531;SDS011;33273;52.254;7.988;2022-10-16T04:33:43;6.60;;;4.67;;
47531;SDS011;33273;52.254;7.988;2022-10-16T04:36:09;7.82;;;4.85;;
47531;SDS011;33273;52.254;7.988;2022-10-16T04:38:36;7.60;;;4.40;;
47531;SDS011;33273;52.254;7.988;2022-10-16T04:41:03;6.50;;;4.53;;
47531;SDS011;33273;52.254;7.988;2022-10-16T04:43:29;8.25;;;4.63;;
47531;SDS011;33273;52.254;7.988;2022-10-16T04:45:56;8.93;;;4.40;;
47531;SDS011;33273;52.254;7.988;2022-10-16T04:48:23;5.85;;;4.05;;
47531;SDS011;33273;52.254;7.988;2022-10-16T04:50:50;8.05;;;4.00;;
47531;SDS011;33273;52.254;7.988;2022-10-16T04:53:15;9.50;;;4.50;;
47531;SDS011;33273;52.254;7.988;2022-10-16T04:55:41;8.63;;;4.20;;
47531;SDS011;33273;52.254;7.988;2022-10-16T04:58:07;7.72;;;3.60;;
47531;SDS011;33273;52.254;7.988;2022-10-16T05:00:34;6.47;;;3.93;;
47531;SDS011;33273;52.254;7.988;2022-10-16T05:03:00;6.05;;;4.28;;
47531;SDS011;33273;52.254;7.988;2022-10-16T05:05:31;7.95;;;4.32;;
47531;SDS011;33273;52.254;7.988;2022-10-16T05:07:56;7.83;;;4.00;;
47531;SDS011;33273;52.254;7.988;2022-10-16T05:10:22;8.23;;;3.60;;
47531;SDS011;33273;52.254;7.988;2022-10-16T05:12:49;7.72;;;3.95;;
47531;SDS011;33273;52.254;7.988;2022-10-16T05:15:16;7.32;;;3.70;;
47531;SDS011;33273;52.254;7.988;2022-10-16T05:17:44;6.25;;;3.55;;
47531;SDS011;33273;52.254;7.988;2022-10-16T05:20:10;6.70;;;4.38;;
47531;SDS011;33273;52.254;7.988;2022-10-16T05:22:38;7.15;;;3.47;;
47531;SDS011;33273;52.254;7.988;2022-10-16T05:25:04;5.90;;;4.00;;
47531;SDS011;33273;52.254;7.988;2022-10-16T05:27:30;6.57;;;3.38;;
47531;SDS011;33273;52.254;7.988;2022-10-16T05:29:56;4.10;;;3.10;;
47531;SDS011;33273;52.254;7.988;2022-10-16T05:32:21;6.50;;;3.87;;
47531;SDS011;33273;52.254;7.988;2022-10-16T05:34:47;5.40;;;3.67;;
47531;SDS011;33273;52.254;7.988;2022-10-16T05:37:14;4.72;;;3.13;;
47531;SDS011;33273;52.254;7.988;2022-10-16T05:39:43;7.05;;;3.83;;
47531;SDS011;33273;52.254;7.988;2022-10-16T05:42:09;5.28;;;3.35;;
47531;SDS011;33273;52.254;7.988;2022-10-16T05:44:36;4.82;;;3.38;;
47531;SDS011;33273;52.254;7.988;2022-10-16T05:47:03;5.47;;;3.30;;
47531;SDS011;33273;52.254;7.988;2022-10-16T05:49:29;8.47;;;4.27;;
47531;SDS011;33273;52.254;7.988;2022-10-16T05:51:55;6.65;;;3.58;;
47531;SDS011;33273;52.254;7.988;2022-10-16T05:54:21;5.50;;;3.43;;
47531;SDS011;33273;52.254;7.988;2022-10-16T05:56:47;12.13;;;4.95;;
47531;SDS011;33273;52.254;7.988;2022-10-16T05:59:14;4.50;;;3.42;;
47531;SDS011;33273;52.254;7.988;2022-10-16T06:01:40;6.65;;;4.28;;
47531;SDS011;33273;52.254;7.988;2022-10-16T06:04:07;7.47;;;3.38;;
47531;SDS011;33273;52.254;7.988;2022-10-16T06:06:33;8.38;;;3.35;;
47531;SDS011;33273;52.254;7.988;2022-10-16T06:09:02;7.82;;;3.25;;
47531;SDS011;33273;52.254;7.988;2022-10-16T06:11:30;6.20;;;3.30;;
47531;SDS011;33273;52.254;7.988;2022-10-16T06:13:58;4.60;;;3.08;;
47531;SDS011;33273;52.254;7.988;2022-10-16T06:16:33;9.20;;;3.05;;
47531;SDS011;33273;52.254;7.988;2022-10-16T06:18:59;5.80;;;3.03;;
47531;SDS011;33273;52.254;7.988;2022-10-16T06:21:27;5.07;;;3.05;;
47531;SDS011;33273;52.254;7.988;2022-10-16T06:23:55;5.30;;;3.10;;
47531;SDS011;33273;52.254;7.988;2022-10-16T06:26:23;5.90;;;3.42;;
47531;SDS011;33273;52.254;7.988;2022-10-16T06:28:57;5.22;;;3.22;;
47531;SDS011;33273;52.254;7.988;2022-10-16T06:31:25;5.43;;;3.17;;
47531;SDS011;33273;52.254;7.988;2022-10-16T06:33:57;5.88;;;2.80;;
47531;SDS011;33273;52.254;7.988;2022-10-16T06:36:23;4.40;;;2.70;;
47531;SDS011;33273;52.254;7.988;2022-10-16T06:38:50;3.97;;;2.60;;
47531;SDS011;33273;52.254;7.988;2022-10-16T06:41:17;4.45;;;2.70;;
47531;SDS011;33273;52.254;7.988;2022-10-16T06:43:46;5.82;;;3.28;;
47531;SDS011;33273;52.254;7.988;2022-10-16T06:46:14;4.43;;;3.28;;
47531;SDS011;33273;52.254;7.988;2022-10-16T06:48:41;6.85;;;2.80;;
47531;SDS011;33273;52.254;7.988;2022-10-16T06:51:14;5.50;;;2.90;;
47531;SDS011;33273;52.254;7.988;2022-10-16T06:53:42;4.30;;;2.95;;
47531;SDS011;33273;52.254;7.988;2022-10-16T06:56:16;5.90;;;3.08;;
47531;SDS011;33273;52.254;7.988;2022-10-16T06:58:42;3.60;;;2.63;;
47531;SDS011;33273;52.254;7.988;2022-10-16T07:01:09;5.55;;;2.80;;
47531;SDS011;33273;52.254;7.988;2022-10-16T07:06:06;3.97;;;2.80;;
47531;SDS011;33273;52.254;7.988;2022-10-16T07:08:35;4.10;;;2.80;;
47531;SDS011;33273;52.254;7.988;2022-10-16T07:11:03;4.20;;;2.58;;
47531;SDS011;33273;52.254;7.988;2022-10-16T07:13:34;6.03;;;3.13;;
47531;SDS011;33273;52.254;7.988;2022-10-16T07:16:05;5.90;;;2.60;;
47531;SDS011;33273;52.254;7.988;2022-10-16T07:18:39;8.85;;;3.90;;
47531;SDS011;33273;52.254;7.988;2022-10-16T07:21:10;5.00;;;2.72;;
47531;SDS011;33273;52.254;7.988;2022-10-16T07:23:52;4.05;;;2.30;;
47531;SDS011;33273;52.254;7.988;2022-10-16T07:26:23;5.72;;;2.53;;
47531;SDS011;33273;52.254;7.988;2022-10-16T07:28:52;4.78;;;2.47;;
47531;SDS011;33273;52.254;7.988;2022-10-16T07:31:19;5.83;;;2.50;;
47531;SDS011;33273;52.254;7.988;2022-10-16T07:33:45;6.05;;;2.70;;
47531;SDS011;33273;52.254;7.988;2022-10-16T07:36:13;4.60;;;3.05;;
47531;SDS011;33273;52.254;7.988;2022-10-16T07:38:41;5.63;;;2.60;;
47531;SDS011;33273;52.254;7.988;2022-10-16T07:41:08;3.63;;;2.60;;
47531;SDS011;33273;52.254;7.988;2022-10-16T07:43:39;5.97;;;3.22;;
47531;SDS011;33273;52.254;7.988;2022-10-16T07:46:05;4.40;;;2.72;;
47531;SDS011;33273;52.254;7.988;2022-10-16T07:48:32;5.47;;;3.05;;
47531;SDS011;33273;52.254;7.988;2022-10-16T07:51:03;5.63;;;2.70;;
47531;SDS011;33273;52.254;7.988;2022-10-16T07:53:31;7.45;;;2.78;;
47531;SDS011;33273;52.254;7.988;2022-10-16T07:55:58;5.30;;;3.20;;
47531;SDS011;33273;52.254;7.988;2022-10-16T07:58:28;4.38;;;2.90;;
47531;SDS011;33273;52.254;7.988;2022-10-16T08:00:54;5.90;;;3.20;;
47531;SDS011;33273;52.254;7.988;2022-10-16T08:03:21;7.15;;;3.25;;
47531;SDS011;33273;52.254;7.988;2022-10-16T08:05:47;7.13;;;2.97;;
47531;SDS011;33273;52.254;7.988;2022-10-16T08:08:14;5.50;;;3.43;;
47531;SDS011;33273;52.254;7.988;2022-10-16T08:10:42;5.72;;;3.10;;
47531;SDS011;33273;52.254;7.988;2022-10-16T08:13:07;5.40;;;2.75;;
47531;SDS011;33273;52.254;7.988;2022-10-16T08:15:33;7.50;;;3.75;;
47531;SDS011;33273;52.254;7.988;2022-10-16T08:18:00;4.45;;;2.80;;
47531;SDS011;33273;52.254;7.988;2022-10-16T08:20:28;14.20;;;9.70;;
47531;SDS011;33273;52.254;7.988;2022-10-16T08:22:55;6.10;;;3.55;;
47531;SDS011;33273;52.254;7.988;2022-10-16T08:25:22;7.55;;;3.53;;
47531;SDS011;33273;52.254;7.988;2022-10-16T08:27:49;6.07;;;3.40;;
47531;SDS011;33273;52.254;7.988;2022-10-16T08:30:16;8.80;;;3.13;;
47531;SDS011;33273;52.254;7.988;2022-10-16T08:32:43;4.80;;;2.90;;
47531;SDS011;33273;52.254;7.988;2022-10-16T08:35:10;4.93;;;2.50;;
47531;SDS011;33273;52.254;7.988;2022-10-16T08:37:37;4.15;;;2.35;;
47531;SDS011;33273;52.254;7.988;2022-10-16T08:40:07;3.72;;;2.50;;
47531;SDS011;33273;52.254;7.988;2022-10-16T08:50:23;5.68;;;2.70;;
47531;SDS011;33273;52.254;7.988;2022-10-16T08:52:53;5.28;;;2.75;;
47531;SDS011;33273;52.254;7.988;2022-10-16T08:55:28;4.93;;;2.25;;
47531;SDS011;33273;52.254;7.988;2022-10-16T08:58:17;8.43;;;3.10;;
47531;SDS011;33273;52.254;7.988;2022-10-16T09:00:49;6.65;;;2.60;;
47531;SDS011;33273;52.254;7.988;2022-10-16T09:08:42;4.57;;;2.60;;
47531;SDS011;33273;52.254;7.988;2022-10-16T09:11:32;5.05;;;2.40;;
47531;SDS011;33273;52.254;7.988;2022-10-16T09:16:59;4.53;;;2.03;;
47531;SDS011;33273;52.254;7.988;2022-10-16T09:19:44;4.68;;;2.08;;
47531;SDS011;33273;52.254;7.988;2022-10-16T09:22:17;6.15;;;2.00;;
47531;SDS011;33273;52.254;7.988;2022-10-16T09:24:47;5.65;;;2.30;;
47531;SDS011;33273;52.254;7.988;2022-10-16T09:27:15;5.53;;;2.00;;
47531;SDS011;33273;52.254;7.988;2022-10-16T09:29:41;4.53;;;2.05;;
47531;SDS011;33273;52.254;7.988;2022-10-16T09:32:13;6.40;;;1.80;;
47531;SDS011;33273;52.254;7.988;2022-10-16T09:34:44;4.68;;;2.03;;
47531;SDS011;33273;52.254;7.988;2022-10-16T09:37:14;3.55;;;1.67;;
47531;SDS011;33273;52.254;7.988;2022-10-16T09:39:48;7.60;;;2.92;;
47531;SDS011;33273;52.254;7.988;2022-10-16T09:42:16;2.97;;;1.60;;
47531;SDS011;33273;52.254;7.988;2022-10-16T09:45:03;4.38;;;1.77;;
47531;SDS011;33273;52.254;7.988;2022-10-16T09:47:30;2.55;;;1.48;;
47531;SDS011;33273;52.254;7.988;2022-10-16T09:50:04;5.15;;;2.38;;
47531;SDS011;33273;52.254;7.988;2022-10-16T09:55:14;9.63;;;2.50;;
47531;SDS011;33273;52.254;7.988;2022-10-16T09:57:52;5.55;;;2.17;;
47531;SDS011;33273;52.254;7.988;2022-10-16T10:00:19;7.35;;;2.42;;
47531;SDS011;33273;52.254;7.988;2022-10-16T10:02:46;4.25;;;1.58;;
47531;SDS011;33273;52.254;7.988;2022-10-16T10:05:31;4.20;;;1.67;;
47531;SDS011;33273;52.254;7.988;2022-10-16T10:07:59;4.55;;;1.27;;
47531;SDS011;33273;52.254;7.988;2022-10-16T10:10:32;6.68;;;2.50;;
47531;SDS011;33273;52.254;7.988;2022-10-16T10:13:02;6.55;;;1.85;;
47531;SDS011;33273;52.254;7.988;2022-10-16T10:15:29;6.05;;;1.40;;
47531;SDS011;33273;52.254;7.988;2022-10-16T10:17:59;2.30;;;1.33;;
47531;SDS011;33273;52.254;7.988;2022-10-16T10:22:56;6.82;;;1.70;;
47531;SDS011;33273;52.254;7.988;2022-10-16T10:25:25;3.63;;;1.30;;
47531;SDS011;33273;52.254;7.988;2022-10-16T10:33:17;5.53;;;1.77;;
47531;SDS011;33273;52.254;7.988;2022-10-16T10:46:41;7.00;;;1.33;;
47531;SDS011;33273;52.254;7.988;2022-10-16T11:05:14;3.92;;;1.10;;
47531;SDS011;33273;52.254;7.988;2022-10-16T11:08:18;7.63;;;1.45;;
47531;SDS011;33273;52.254;7.988;2022-10-16T11:11:02;5.43;;;2.05;;
47531;SDS011;33273;52.254;7.988;2022-10-16T11:13:39;2.95;;;1.17;;
47531;SDS011;33273;52.254;7.988;2022-10-16T11:22:05;4.47;;;2.38;;
47531;SDS011;33273;52.254;7.988;2022-10-16T11:27:15;6.10;;;1.30;;
47531;SDS011;33273;52.254;7.988;2022-10-16T11:29:48;5.88;;;1.70;;
47531;SDS011;33273;52.254;7.988;2022-10-16T11:32:21;5.60;;;1.60;;
47531;SDS011;33273;52.254;7.988;2022-10-16T11:34:52;6.10;;;1.67;;
47531;SDS011;33273;52.254;7.988;2022-10-16T11:37:30;5.22;;;1.65;;
47531;SDS011;33273;52.254;7.988;2022-10-16T11:40:03;4.50;;;1.60;;
47531;SDS011;33273;52.254;7.988;2022-10-16T11:42:54;4.70;;;1.95;;
47531;SDS011;33273;52.254;7.988;2022-10-16T11:45:30;5.38;;;2.22;;
47531;SDS011;33273;52.254;7.988;2022-10-16T11:50:52;4.68;;;1.90;;
47531;SDS011;33273;52.254;7.988;2022-10-16T11:56:15;4.03;;;2.13;;
47531;SDS011;33273;52.254;7.988;2022-10-16T12:04:02;4.25;;;2.35;;
47531;SDS011;33273;52.254;7.988;2022-10-16T12:06:39;4.82;;;2.13;;
47531;SDS011;33273;52.254;7.988;2022-10-16T12:09:13;7.03;;;2.20;;
47531;SDS011;33273;52.254;7.988;2022-10-16T12:16:51;4.95;;;2.08;;
47531;SDS011;33273;52.254;7.988;2022-10-16T12:19:24;5.50;;;2.33;;
47531;SDS011;33273;52.254;7.988;2022-10-16T12:21:52;7.10;;;3.03;;
47531;SDS011;33273;52.254;7.988;2022-10-16T12:24:27;5.28;;;2.08;;
47531;SDS011;33273;52.254;7.988;2022-10-16T12:27:03;5.68;;;2.72;;
47531;SDS011;33273;52.254;7.988;2022-10-16T12:29:42;6.22;;;2.58;;
47531;SDS011;33273;52.254;7.988;2022-10-16T12:35:05;4.45;;;2.00;;
47531;SDS011;33273;52.254;7.988;2022-10-16T12:37:45;6.22;;;2.22;;
47531;SDS011;33273;52.254;7.988;2022-10-16T12:40:12;3.60;;;1.55;;
47531;SDS011;33273;52.254;7.988;2022-10-16T12:45:35;5.30;;;1.70;;
47531;SDS011;33273;52.254;7.988;2022-10-16T12:48:02;6.85;;;1.73;;
47531;SDS011;33273;52.254;7.988;2022-10-16T12:50:43;3.47;;;1.40;;
47531;SDS011;33273;52.254;7.988;2022-10-16T12:53:17;8.45;;;1.80;;
47531;SDS011;33273;52.254;7.988;2022-10-16T12:55:52;3.90;;;1.50;;
47531;SDS011;33273;52.254;7.988;2022-10-16T12:58:35;5.35;;;1.77;;
47531;SDS011;33273;52.254;7.988;2022-10-16T13:09:19;3.40;;;1.30;;
47531;SDS011;33273;52.254;7.988;2022-10-16T13:17:34;3.80;;;1.73;;
47531;SDS011;33273;52.254;7.988;2022-10-16T13:20:21;4.47;;;1.60;;
47531;SDS011;33273;52.254;7.988;2022-10-16T13:25:22;5.00;;;1.30;;
47531;SDS011;33273;52.254;7.988;2022-10-16T13:28:04;6.50;;;1.58;;
47531;SDS011;33273;52.254;7.988;2022-10-16T13:30:38;5.25;;;1.23;;
47531;SDS011;33273;52.254;7.988;2022-10-16T13:33:11;6.53;;;1.38;;
47531;SDS011;33273;52.254;7.988;2022-10-16T13:35:54;5.57;;;1.67;;
47531;SDS011;33273;52.254;7.988;2022-10-16T13:38:25;5.95;;;1.33;;
47531;SDS011;33273;52.254;7.988;2022-10-16T13:40:57;10.55;;;1.83;;
47531;SDS011;33273;52.254;7.988;2022-10-16T13:46:00;2.72;;;1.20;;
47531;SDS011;33273;52.254;7.988;2022-10-16T13:48:27;2.38;;;0.90;;
47531;SDS011;33273;52.254;7.988;2022-10-16T13:53:30;5.93;;;1.27;;
47531;SDS011;33273;52.254;7.988;2022-10-16T13:55:57;3.90;;;1.30;;
47531;SDS011;33273;52.254;7.988;2022-10-16T13:58:25;3.85;;;1.83;;
47531;SDS011;33273;52.254;7.988;2022-10-16T14:03:42;5.47;;;1.60;;
47531;SDS011;33273;52.254;7.988;2022-10-16T14:06:12;8.27;;;2.28;;
47531;SDS011;33273;52.254;7.988;2022-10-16T14:09:17;5.35;;;1.30;;
47531;SDS011;33273;52.254;7.988;2022-10-16T14:11:49;5.50;;;1.63;;
47531;SDS011;33273;52.254;7.988;2022-10-16T14:14:17;4.50;;;1.48;;
47531;SDS011;33273;52.254;7.988;2022-10-16T14:16:44;4.55;;;1.60;;
47531;SDS011;33273;52.254;7.988;2022-10-16T14:19:25;9.20;;;1.42;;
47531;SDS011;33273;52.254;7.988;2022-10-16T14:21:53;4.30;;;1.58;;
47531;SDS011;33273;52.254;7.988;2022-10-16T14:26:56;2.63;;;1.20;;
47531;SDS011;33273;52.254;7.988;2022-10-16T14:29:23;8.18;;;1.70;;
47531;SDS011;33273;52.254;7.988;2022-10-16T14:34:54;4.93;;;1.77;;
47531;SDS011;33273;52.254;7.988;2022-10-16T14:37:24;3.70;;;1.58;;
47531;SDS011;33273;52.254;7.988;2022-10-16T14:39:52;15.80;;;2.15;;
47531;SDS011;33273;52.254;7.988;2022-10-16T14:42:20;4.82;;;1.58;;
47531;SDS011;33273;52.254;7.988;2022-10-16T14:44:50;7.18;;;2.00;;
47531;SDS011;33273;52.254;7.988;2022-10-16T14:47:20;6.18;;;1.70;;
47531;SDS011;33273;52.254;7.988;2022-10-16T14:49:52;5.80;;;1.80;;
47531;SDS011;33273;52.254;7.988;2022-10-16T14:52:24;5.43;;;1.60;;
47531;SDS011;33273;52.254;7.988;2022-10-16T14:54:50;4.40;;;1.40;;
47531;SDS011;33273;52.254;7.988;2022-10-16T14:57:20;6.60;;;1.75;;
47531;SDS011;33273;52.254;7.988;2022-10-16T14:59:50;3.05;;;1.38;;
47531;SDS011;33273;52.254;7.988;2022-10-16T15:02:27;5.18;;;1.33;;
47531;SDS011;33273;52.254;7.988;2022-10-16T15:04:56;5.38;;;1.60;;
47531;SDS011;33273;52.254;7.988;2022-10-16T15:07:22;4.75;;;1.40;;
47531;SDS011;33273;52.254;7.988;2022-10-16T15:09:48;3.20;;;1.65;;
47531;SDS011;33273;52.254;7.988;2022-10-16T15:12:15;5.22;;;1.40;;
47531;SDS011;33273;52.254;7.988;2022-10-16T15:17:09;3.85;;;1.73;;
47531;SDS011;33273;52.254;7.988;2022-10-16T15:19:36;6.63;;;1.80;;
47531;SDS011;33273;52.254;7.988;2022-10-16T15:22:03;3.97;;;1.70;;
47531;SDS011;33273;52.254;7.988;2022-10-16T15:24:29;5.78;;;1.40;;
47531;SDS011;33273;52.254;7.988;2022-10-16T15:26:55;4.22;;;1.60;;
47531;SDS011;33273;52.254;7.988;2022-10-16T15:29:21;4.38;;;1.67;;
47531;SDS011;33273;52.254;7.988;2022-10-16T15:31:48;6.05;;;1.67;;
47531;SDS011;33273;52.254;7.988;2022-10-16T15:34:15;6.25;;;1.65;;
47531;SDS011;33273;52.254;7.988;2022-10-16T15:36:45;9.38;;;2.65;;
47531;SDS011;33273;52.254;7.988;2022-10-16T15:39:18;7.32;;;1.95;;
47531;SDS011;33273;52.254;7.988;2022-10-16T15:41:45;4.10;;;1.42;;
47531;SDS011;33273;52.254;7.988;2022-10-16T15:44:19;6.85;;;2.13;;
47531;SDS011;33273;52.254;7.988;2022-10-16T15:46:48;6.18;;;2.00;;
47531;SDS011;33273;52.254;7.988;2022-10-16T15:49:14;7.68;;;2.15;;
47531;SDS011;33273;52.254;7.988;2022-10-16T15:51:41;7.00;;;2.08;;
47531;SDS011;33273;52.254;7.988;2022-10-16T15:54:08;5.70;;;1.75;;
47531;SDS011;33273;52.254;7.988;2022-10-16T15:59:02;3.33;;;1.35;;
47531;SDS011;33273;52.254;7.988;2022-10-16T16:01:32;5.43;;;1.63;;
47531;SDS011;33273;52.254;7.988;2022-10-16T16:04:02;3.58;;;1.10;;
47531;SDS011;33273;52.254;7.988;2022-10-16T16:06:29;4.57;;;1.75;;
47531;SDS011;33273;52.254;7.988;2022-10-16T16:08:55;3.47;;;1.13;;
47531;SDS011;33273;52.254;7.988;2022-10-16T16:11:24;6.40;;;1.90;;
47531;SDS011;33273;52.254;7.988;2022-10-16T16:13:52;4.75;;;1.33;;
47531;SDS011;33273;52.254;7.988;2022-10-16T16:16:22;5.15;;;1.23;;
47531;SDS011;33273;52.254;7.988;2022-10-16T16:18:52;3.22;;;1.20;;
47531;SDS011;33273;52.254;7.988;2022-10-16T16:21:18;6.55;;;2.00;;
47531;SDS011;33273;52.254;7.988;2022-10-16T16:23:45;5.85;;;1.23;;
47531;SDS011;33273;52.254;7.988;2022-10-16T16:26:22;3.95;;;1.50;;
47531;SDS011;33273;52.254;7.988;2022-10-16T16:28:58;4.43;;;1.33;;
47531;SDS011;33273;52.254;7.988;2022-10-16T16:31:26;5.03;;;1.20;;
47531;SDS011;33273;52.254;7.988;2022-10-16T16:33:53;3.00;;;1.35;;
47531;SDS011;33273;52.254;7.988;2022-10-16T16:36:22;5.20;;;1.58;;
47531;SDS011;33273;52.254;7.988;2022-10-16T16:38:48;3.97;;;1.63;;
47531;SDS011;33273;52.254;7.988;2022-10-16T16:41:18;6.40;;;2.00;;
47531;SDS011;33273;52.254;7.988;2022-10-16T16:43:48;3.38;;;1.25;;
47531;SDS011;33273;52.254;7.988;2022-10-16T16:46:17;6.90;;;1.48;;
47531;SDS011;33273;52.254;7.988;2022-10-16T16:51:11;4.90;;;1.40;;
47531;SDS011;33273;52.254;7.988;2022-10-16T16:53:43;5.10;;;1.83;;
47531;SDS011;33273;52.254;7.988;2022-10-16T16:56:13;3.00;;;1.58;;
47531;SDS011;33273;52.254;7.988;2022-10-16T16:58:39;5.38;;;2.13;;
47531;SDS011;33273;52.254;7.988;2022-10-16T17:01:05;6.93;;;2.00;;
47531;SDS011;33273;52.254;7.988;2022-10-16T17:03:34;4.10;;;1.58;;
47531;SDS011;33273;52.254;7.988;2022-10-16T17:06:01;7.53;;;1.80;;
47531;SDS011;33273;52.254;7.988;2022-10-16T17:08:29;7.47;;;1.90;;
47531;SDS011;33273;52.254;7.988;2022-10-16T17:10:56;6.38;;;1.85;;
47531;SDS011;33273;52.254;7.988;2022-10-16T17:13:23;3.92;;;1.75;;